Aérodrome :
LOGIN :

S'inscrire | Disclaimer

   EN    FR    IT 

 










Légende :    VFR   VFR Marginal   IFR   IFR Intensif   IFR Très Intensif
Visi : 
Plafond : 
>= 8 km
>= 3000ft
5 à 8 km
1000 à 3000 ft
1500m à 5 km
500 à 1000 ft
800 à 1500m
200 à 500 ft
< 800m
< 200 ft
Symboles :   Orages  Brouillard  Fortes neiges  Fortes précipitations  Vent > 20 kt
SIGMETs :   Divers  Orages  Givrage  Turbulence  Onde Orograph.  Cendres Volcan.






- Altitude de l'aérodrome : 370 ft


EBBE - Beauvechain AB

DERNIER METAR :
  • 301539Z AUTO 27008KT 8000 RA SCT003/// BKN006/// OVC048/// 13/13 Q1014 YLO GRN TEMPO YLO

METARs EXPIRÉS :
  • 301525Z 26011KT 4000 RA FEW003 BKN007 BKN025 13/13 Q1014 GRN GRN TEMPO YLO
  • 301503Z 27015KT 4000 RA FEW009 BKN020 BKN035 13/13 Q1013 GRN BLU TEMPO GRN
  • 301455Z 27014KT 7000 RA FEW012 BKN023 BKN037 13/12 Q1013 WHT BLU TEMPO GRN
  • 301443Z 26016KT 9999 FEW017 BKN033 BKN041 15/12 Q1013 BLU BLU TEMPO GRN
  • 301425Z 26015KT 9999 FEW017 BKN033 BKN041 15/12 Q1013 BLU BLU
  • 301355Z 26011KT 9999 BKN026 BKN030 17/13 Q1013 BLU BLU
  • 301255Z 27010KT 9999 BKN027 BKN130 17/13 Q1012 BLU BLU

TAF TAF EBBE
Valide du 30 à 13h jusqu'au 30 à 22h UTC


301141Z 3013/3022 30004KT 8000 FEW010 BKN020
TEMPO 3013/3019 5000 -RA SCT007 BKN015 OVC020
TEMPO 3013/3016 29010G20KT 3000 RA BKN005 OVC015
BECMG 3019/3021 BKN070



MET'MAP, la Météo Aéronautique d'un coup d'oeil ! - Copyright ORBIFLY Décembre 2007 - Disclaimer

ORBIFLY MET'MAP TEAM :

Programmation & Développement : Alexandra Zaïnal
Sur une idée originale de : Baudouin d'Aumeries
Soutien technique & logistique : Manuel Goepfert
Assistance : Marc-Olivier Méhu




SOURCES & CREDITS :

   NOAA